createdAt,value
2018-09-20T00:00:58.890Z,0.00
2018-09-20T00:01:58.919Z,0.00
2018-09-20T00:02:58.954Z,0.00
2018-09-20T00:03:58.981Z,0.00
2018-09-20T00:04:59.012Z,0.00
2018-09-20T00:05:59.042Z,0.00
2018-09-20T00:06:59.070Z,0.00
2018-09-20T00:07:59.108Z,0.00
2018-09-20T00:08:59.138Z,0.00
2018-09-20T00:09:59.172Z,0.00
2018-09-20T00:10:59.197Z,0.00
2018-09-20T00:11:59.231Z,0.00
2018-09-20T00:12:59.261Z,0.00
2018-09-20T00:13:59.293Z,0.00
2018-09-20T00:14:59.318Z,0.00
2018-09-20T00:15:59.357Z,0.00
2018-09-20T00:16:59.381Z,0.00
2018-09-20T00:17:59.410Z,0.00
2018-09-20T00:18:59.442Z,0.00
2018-09-20T00:19:59.468Z,0.00
2018-09-20T00:20:59.506Z,0.00
2018-09-20T00:21:59.544Z,0.00
2018-09-20T00:22:59.568Z,0.00
2018-09-20T00:23:59.635Z,0.00
2018-09-20T00:24:59.628Z,0.00
2018-09-20T00:25:59.657Z,0.00
2018-09-20T00:26:59.689Z,0.00
2018-09-20T00:27:59.721Z,0.00
2018-09-20T00:28:59.756Z,0.00
2018-09-20T00:29:59.783Z,0.00
2018-09-20T00:30:59.810Z,0.00
2018-09-20T00:31:59.845Z,0.00
2018-09-20T00:32:59.872Z,0.00
2018-09-20T00:33:59.904Z,0.00
2018-09-20T00:34:59.936Z,0.00
2018-09-20T00:35:59.963Z,0.00
2018-09-20T00:36:59.999Z,0.00
2018-09-20T00:38:00.030Z,0.00
2018-09-20T00:39:00.057Z,0.00
2018-09-20T00:40:00.084Z,0.00
2018-09-20T00:41:00.129Z,0.00
2018-09-20T00:42:00.145Z,0.00
2018-09-20T00:43:00.177Z,0.00
2018-09-20T00:44:00.207Z,0.00
2018-09-20T00:45:00.233Z,0.00
2018-09-20T00:46:00.270Z,0.00
2018-09-20T00:47:00.300Z,0.00
2018-09-20T00:48:00.328Z,0.00
2018-09-20T00:49:00.363Z,0.00
2018-09-20T00:50:00.393Z,0.00
2018-09-20T00:51:00.418Z,0.00
2018-09-20T00:52:00.450Z,0.00
2018-09-20T00:53:00.485Z,0.00
2018-09-20T00:54:00.512Z,0.00
2018-09-20T00:55:00.559Z,0.00
2018-09-20T00:56:00.569Z,0.00
2018-09-20T00:57:00.607Z,0.00
2018-09-20T00:58:00.633Z,0.00
2018-09-20T00:59:00.662Z,0.00
2018-09-20T01:00:00.697Z,0.00
2018-09-20T01:01:00.726Z,0.00
2018-09-20T01:02:00.758Z,0.00
2018-09-20T01:03:00.784Z,0.00
2018-09-20T01:04:00.810Z,0.00
2018-09-20T01:05:00.848Z,0.00
2018-09-20T01:06:00.877Z,0.00
2018-09-20T01:07:00.910Z,0.00
2018-09-20T01:08:00.944Z,0.00
2018-09-20T01:09:00.967Z,0.00
2018-09-20T01:10:01.004Z,0.00
2018-09-20T01:11:01.028Z,0.00
2018-09-20T01:12:01.063Z,0.00
2018-09-20T01:13:01.083Z,0.00
2018-09-20T01:14:01.124Z,0.00
2018-09-20T01:15:01.158Z,0.00
2018-09-20T01:16:01.184Z,0.00
2018-09-20T01:17:01.209Z,0.00
2018-09-20T01:18:01.245Z,0.00
2018-09-20T01:19:01.274Z,0.00
2018-09-20T01:20:01.306Z,0.00
2018-09-20T01:21:01.339Z,0.00
2018-09-20T01:22:01.367Z,0.00
2018-09-20T01:23:01.403Z,0.00
2018-09-20T01:24:01.429Z,0.00
2018-09-20T01:25:01.458Z,0.00
2018-09-20T01:26:01.490Z,0.00
2018-09-20T01:27:01.518Z,0.00
2018-09-20T01:28:01.547Z,0.00
2018-09-20T01:29:01.584Z,0.00
2018-09-20T01:30:01.610Z,0.00
2018-09-20T01:31:01.642Z,0.00
2018-09-20T01:32:01.674Z,0.00
2018-09-20T01:33:01.703Z,0.00
2018-09-20T01:34:05.511Z,0.00
2018-09-20T01:35:01.781Z,0.00
2018-09-20T01:36:01.801Z,0.00
2018-09-20T01:37:01.830Z,0.00
2018-09-20T01:38:01.855Z,0.00
2018-09-20T01:39:01.888Z,0.00
2018-09-20T01:40:01.919Z,0.00
2018-09-20T01:41:01.944Z,0.00
2018-09-20T01:42:01.980Z,0.00
2018-09-20T01:43:02.009Z,0.00
2018-09-20T01:44:02.047Z,0.00
2018-09-20T01:45:02.069Z,0.00
2018-09-20T01:46:02.101Z,0.00
2018-09-20T01:47:02.133Z,0.00
2018-09-20T01:48:02.165Z,0.00
2018-09-20T01:49:02.191Z,0.00
2018-09-20T01:50:02.226Z,0.00
2018-09-20T01:51:02.255Z,0.00
2018-09-20T01:52:02.285Z,0.00
2018-09-20T01:53:02.314Z,0.00
2018-09-20T01:54:02.344Z,0.00
2018-09-20T01:55:02.421Z,0.00
2018-09-20T01:56:02.408Z,0.00
2018-09-20T01:57:02.433Z,0.00
2018-09-20T01:58:02.469Z,0.00
2018-09-20T01:59:02.497Z,0.00
2018-09-20T02:00:02.531Z,0.00
2018-09-20T02:01:02.558Z,0.00
2018-09-20T02:02:02.585Z,0.00
2018-09-20T02:03:02.621Z,0.00
2018-09-20T02:04:02.649Z,0.00
2018-09-20T02:05:02.681Z,0.00
2018-09-20T02:06:02.710Z,0.00
2018-09-20T02:07:02.742Z,0.00
2018-09-20T02:08:02.773Z,0.00
2018-09-20T02:09:02.803Z,0.00
2018-09-20T02:10:02.832Z,0.00
2018-09-20T02:11:02.863Z,0.00
2018-09-20T02:12:02.896Z,0.00
2018-09-20T02:13:02.931Z,0.00
2018-09-20T02:14:02.953Z,0.00
2018-09-20T02:15:02.989Z,0.00
2018-09-20T02:16:03.015Z,0.00
2018-09-20T02:17:03.043Z,0.00
2018-09-20T02:18:03.065Z,0.00
2018-09-20T02:19:03.107Z,0.00
2018-09-20T02:20:03.143Z,0.00
2018-09-20T02:21:03.178Z,0.00
2018-09-20T02:22:03.194Z,0.00
2018-09-20T02:23:03.223Z,0.00
2018-09-20T02:24:03.258Z,0.00
2018-09-20T02:25:03.288Z,0.00
2018-09-20T02:26:03.319Z,0.00
2018-09-20T02:27:03.351Z,0.00
2018-09-20T02:28:03.397Z,0.00
2018-09-20T02:29:03.410Z,0.00
2018-09-20T02:30:03.439Z,0.00
2018-09-20T02:31:03.470Z,0.00
2018-09-20T02:32:03.503Z,0.00
2018-09-20T02:33:03.532Z,0.00
2018-09-20T02:34:03.564Z,0.00
2018-09-20T02:35:03.601Z,0.00
2018-09-20T02:36:03.623Z,0.00
2018-09-20T02:37:03.655Z,0.00
2018-09-20T02:38:03.687Z,0.00
2018-09-20T02:39:03.718Z,0.00
2018-09-20T02:40:03.745Z,0.00
2018-09-20T02:41:03.774Z,0.00
2018-09-20T02:42:03.807Z,0.00
2018-09-20T02:43:03.838Z,0.00
2018-09-20T02:44:03.869Z,0.00
2018-09-20T02:45:03.896Z,0.00
2018-09-20T02:46:03.925Z,0.00
2018-09-20T02:47:03.957Z,0.00
2018-09-20T02:48:03.988Z,0.00
2018-09-20T02:49:04.018Z,0.00
2018-09-20T02:50:04.049Z,0.00
2018-09-20T02:51:04.078Z,0.00
2018-09-20T02:52:04.107Z,0.00
2018-09-20T02:53:04.135Z,0.00
2018-09-20T02:54:04.167Z,0.00
2018-09-20T02:55:04.201Z,0.00
2018-09-20T02:56:04.221Z,0.00
2018-09-20T02:57:04.268Z,0.00
2018-09-20T02:58:04.293Z,0.00
2018-09-20T02:59:04.397Z,0.00
2018-09-20T03:00:04.349Z,0.00
2018-09-20T03:01:04.374Z,0.00
2018-09-20T03:02:04.410Z,0.00
2018-09-20T03:03:04.438Z,0.00
2018-09-20T03:04:04.469Z,0.00
2018-09-20T03:05:04.499Z,0.00
2018-09-20T03:06:04.528Z,0.00
2018-09-20T03:07:04.559Z,0.00
2018-09-20T03:08:04.588Z,0.00
2018-09-20T03:09:04.620Z,0.00
2018-09-20T03:10:04.652Z,0.00
2018-09-20T03:11:04.668Z,0.00
2018-09-20T03:12:04.703Z,0.00
2018-09-20T03:13:04.738Z,0.00
2018-09-20T03:14:04.770Z,0.00
2018-09-20T03:15:04.802Z,0.00
2018-09-20T03:16:04.830Z,0.00
2018-09-20T03:17:04.856Z,0.00
2018-09-20T03:18:04.888Z,0.00
2018-09-20T03:19:04.923Z,0.00
2018-09-20T03:20:04.949Z,0.00
2018-09-20T03:21:04.979Z,0.00
2018-09-20T03:22:05.011Z,0.00
2018-09-20T03:23:05.036Z,0.00
2018-09-20T03:24:05.069Z,0.00
2018-09-20T03:25:05.103Z,0.00
2018-09-20T03:26:05.126Z,0.00
2018-09-20T03:27:05.158Z,0.00
2018-09-20T03:28:05.194Z,0.00
2018-09-20T03:29:05.223Z,0.00
2018-09-20T03:30:05.248Z,0.00
2018-09-20T03:31:05.290Z,0.00
2018-09-20T03:32:05.308Z,0.00
2018-09-20T03:33:05.332Z,0.00
2018-09-20T03:34:05.368Z,0.00
2018-09-20T03:35:05.403Z,0.00
2018-09-20T03:36:05.428Z,0.00
2018-09-20T03:37:05.459Z,0.00
2018-09-20T03:38:05.490Z,0.00
2018-09-20T03:39:05.524Z,0.00
2018-09-20T03:40:05.540Z,0.00
2018-09-20T03:41:05.572Z,0.00
2018-09-20T03:42:05.604Z,0.00
2018-09-20T03:43:05.636Z,0.00
2018-09-20T03:44:05.672Z,0.00
2018-09-20T03:45:05.697Z,0.00
2018-09-20T03:46:05.727Z,0.00
2018-09-20T03:47:05.758Z,0.00
2018-09-20T03:48:05.794Z,0.00
2018-09-20T03:49:05.817Z,0.00
2018-09-20T03:50:05.845Z,0.00
2018-09-20T03:51:05.880Z,0.00
2018-09-20T03:52:05.907Z,0.00
2018-09-20T03:53:05.935Z,0.00
2018-09-20T03:54:05.963Z,0.00
2018-09-20T03:55:05.995Z,0.00
2018-09-20T03:56:06.026Z,0.00
2018-09-20T03:57:06.058Z,0.00
2018-09-20T03:58:06.087Z,0.00
2018-09-20T03:59:06.116Z,0.00
2018-09-20T04:00:06.144Z,0.00
2018-09-20T04:01:06.180Z,0.00
2018-09-20T04:02:06.209Z,0.00
2018-09-20T04:03:06.232Z,0.00
2018-09-20T04:04:06.264Z,0.00
2018-09-20T04:05:06.302Z,0.00
2018-09-20T04:06:06.327Z,0.00
2018-09-20T04:07:06.353Z,0.00
2018-09-20T04:08:06.388Z,0.00
2018-09-20T04:09:06.414Z,0.00
2018-09-20T04:10:06.449Z,0.00
2018-09-20T04:11:06.475Z,0.00
2018-09-20T04:12:06.501Z,0.00
2018-09-20T04:13:06.529Z,0.00
2018-09-20T04:14:06.572Z,0.00
2018-09-20T04:15:06.600Z,0.00
2018-09-20T04:16:06.627Z,0.00
2018-09-20T04:17:06.656Z,0.00
2018-09-20T04:18:06.688Z,0.00
2018-09-20T04:19:06.716Z,0.00
2018-09-20T04:20:06.746Z,0.00
2018-09-20T04:21:06.771Z,0.00
2018-09-20T04:22:06.793Z,0.00
2018-09-20T04:23:06.834Z,0.00
2018-09-20T04:24:06.864Z,0.00
2018-09-20T04:25:06.889Z,0.00
2018-09-20T04:26:06.921Z,0.00
2018-09-20T04:27:06.953Z,0.00
2018-09-20T04:28:06.982Z,0.00
2018-09-20T04:29:07.007Z,0.00
2018-09-20T04:30:07.042Z,0.00
2018-09-20T04:31:07.081Z,0.00
2018-09-20T04:32:07.094Z,0.00
2018-09-20T04:33:07.132Z,0.00
2018-09-20T04:34:07.158Z,0.00
2018-09-20T04:35:07.189Z,0.00
2018-09-20T04:36:07.224Z,0.00
2018-09-20T04:37:07.250Z,0.00
2018-09-20T04:38:07.278Z,0.00
2018-09-20T04:39:07.310Z,0.00
2018-09-20T04:40:07.342Z,0.00
2018-09-20T04:41:07.371Z,0.00
2018-09-20T04:42:07.404Z,0.00
2018-09-20T04:43:07.435Z,0.00
2018-09-20T04:44:07.466Z,0.00
2018-09-20T04:45:07.489Z,0.00
2018-09-20T04:46:07.524Z,0.00
2018-09-20T04:47:07.549Z,0.00
2018-09-20T04:48:07.593Z,0.00
2018-09-20T04:49:07.611Z,0.00
2018-09-20T04:50:07.633Z,0.00
2018-09-20T04:51:07.672Z,0.00
2018-09-20T04:52:07.697Z,0.00
2018-09-20T04:53:07.752Z,0.00
2018-09-20T04:54:07.758Z,0.00
2018-09-20T04:55:07.796Z,0.00
2018-09-20T04:56:07.822Z,0.00
2018-09-20T04:57:07.845Z,0.00
2018-09-20T04:58:07.880Z,0.00
2018-09-20T04:59:07.908Z,0.00
2018-09-20T05:00:08.020Z,0.00
2018-09-20T05:01:07.966Z,0.00
2018-09-20T05:02:07.996Z,0.00
2018-09-20T05:03:08.025Z,0.00
2018-09-20T05:04:08.060Z,5.63
2018-09-20T05:05:08.089Z,5.63
2018-09-20T05:06:08.120Z,5.63
2018-09-20T05:07:08.149Z,5.63
2018-09-20T05:08:08.178Z,5.63
2018-09-20T05:09:08.208Z,5.63
2018-09-20T05:10:08.237Z,5.63
2018-09-20T05:11:08.278Z,5.63
2018-09-20T05:12:08.297Z,11.25
2018-09-20T05:13:08.326Z,11.25
2018-09-20T05:14:08.352Z,11.25
2018-09-20T05:15:08.392Z,11.25
2018-09-20T05:16:08.411Z,16.88
2018-09-20T05:17:08.443Z,16.88
2018-09-20T05:18:08.472Z,22.50
2018-09-20T05:19:08.507Z,22.50
2018-09-20T05:20:08.577Z,28.13
2018-09-20T05:21:08.562Z,28.13
2018-09-20T05:22:08.591Z,33.75
2018-09-20T05:23:08.636Z,33.75
2018-09-20T05:24:08.655Z,39.38
2018-09-20T05:25:08.688Z,39.38
2018-09-20T05:26:08.726Z,45.00
2018-09-20T05:27:08.745Z,45.00
2018-09-20T05:28:08.779Z,45.00
2018-09-20T05:29:08.805Z,50.63
2018-09-20T05:30:08.828Z,50.63
2018-09-20T05:31:08.873Z,56.25
2018-09-20T05:32:08.901Z,56.25
2018-09-20T05:33:08.959Z,56.25
2018-09-20T05:34:08.964Z,61.88
2018-09-20T05:35:08.983Z,67.50
2018-09-20T05:36:09.011Z,67.50
2018-09-20T05:37:09.043Z,73.13
2018-09-20T05:38:09.085Z,78.75
2018-09-20T05:39:09.101Z,84.38
2018-09-20T05:40:09.133Z,84.38
2018-09-20T05:41:09.165Z,90.00
2018-09-20T05:42:09.193Z,95.63
2018-09-20T05:43:09.222Z,95.63
2018-09-20T05:44:09.270Z,101.25
2018-09-20T05:45:09.287Z,101.25
2018-09-20T05:46:09.315Z,106.88
2018-09-20T05:47:09.354Z,112.50
2018-09-20T05:48:09.376Z,112.50
2018-09-20T05:49:09.407Z,118.13
2018-09-20T05:50:09.455Z,123.75
2018-09-20T05:51:09.470Z,129.38
2018-09-20T05:52:09.498Z,135.00
2018-09-20T05:53:09.525Z,140.63
2018-09-20T05:54:09.555Z,140.63
2018-09-20T05:55:09.586Z,146.25
2018-09-20T05:56:09.621Z,146.25
2018-09-20T05:57:09.644Z,146.25
2018-09-20T05:58:09.679Z,146.25
2018-09-20T05:59:09.756Z,146.25
2018-09-20T06:00:09.744Z,146.25
2018-09-20T06:01:09.762Z,151.88
2018-09-20T06:02:09.806Z,151.88
2018-09-20T06:03:09.831Z,157.50
2018-09-20T06:04:09.860Z,163.13
2018-09-20T06:05:09.898Z,168.75
2018-09-20T06:06:09.925Z,174.38
2018-09-20T06:07:09.959Z,180.00
2018-09-20T06:08:09.980Z,185.63
2018-09-20T06:09:10.017Z,180.00
2018-09-20T06:10:10.042Z,185.63
2018-09-20T06:11:10.068Z,191.25
2018-09-20T06:12:10.105Z,191.25
2018-09-20T06:13:10.149Z,191.25
2018-09-20T06:14:10.164Z,191.25
2018-09-20T06:15:10.197Z,196.88
2018-09-20T06:16:10.226Z,196.88
2018-09-20T06:17:10.257Z,202.50
2018-09-20T06:18:10.290Z,208.13
2018-09-20T06:19:10.318Z,208.13
2018-09-20T06:20:10.350Z,208.13
2018-09-20T06:21:10.366Z,208.13
2018-09-20T06:22:10.405Z,213.75
2018-09-20T06:23:10.434Z,213.75
2018-09-20T06:24:10.457Z,213.75
2018-09-20T06:25:10.498Z,219.38
2018-09-20T06:26:10.530Z,225.00
2018-09-20T06:27:10.555Z,236.25
2018-09-20T06:28:10.597Z,241.88
2018-09-20T06:29:10.620Z,241.88
2018-09-20T06:30:10.659Z,247.50
2018-09-20T06:31:10.681Z,253.13
2018-09-20T06:32:10.720Z,253.13
2018-09-20T06:33:10.755Z,258.75
2018-09-20T06:34:10.769Z,270.00
2018-09-20T06:35:10.813Z,275.63
2018-09-20T06:36:10.824Z,281.25
2018-09-20T06:37:10.870Z,286.88
2018-09-20T06:38:10.895Z,292.50
2018-09-20T06:39:10.923Z,298.13
2018-09-20T06:40:10.955Z,298.13
2018-09-20T06:41:11.046Z,298.13
2018-09-20T06:42:11.014Z,292.50
2018-09-20T06:43:11.056Z,298.13
2018-09-20T06:44:11.088Z,298.13
2018-09-20T06:45:11.113Z,303.75
2018-09-20T06:46:11.135Z,315.00
2018-09-20T06:47:11.177Z,331.88
2018-09-20T06:48:11.202Z,348.75
2018-09-20T06:49:11.221Z,365.63
2018-09-20T06:50:11.276Z,388.13
2018-09-20T06:51:11.295Z,421.88
2018-09-20T06:52:11.324Z,466.88
2018-09-20T06:53:11.361Z,523.13
2018-09-20T06:54:11.383Z,596.25
2018-09-20T06:55:11.412Z,641.25
2018-09-20T06:56:11.447Z,669.38
2018-09-20T06:57:11.479Z,675.00
2018-09-20T06:58:11.511Z,652.50
2018-09-20T06:59:11.537Z,630.00
2018-09-20T07:00:11.572Z,596.25
2018-09-20T07:01:11.629Z,590.63
2018-09-20T07:02:11.636Z,596.25
2018-09-20T07:03:11.687Z,579.38
2018-09-20T07:04:11.697Z,579.38
2018-09-20T07:05:11.729Z,579.38
2018-09-20T07:06:11.761Z,568.13
2018-09-20T07:07:11.792Z,551.25
2018-09-20T07:08:11.828Z,523.13
2018-09-20T07:09:11.853Z,489.38
2018-09-20T07:10:11.889Z,478.13
2018-09-20T07:11:11.921Z,478.13
2018-09-20T07:12:11.975Z,472.50
2018-09-20T07:13:11.981Z,489.38
2018-09-20T07:14:12.022Z,500.63
2018-09-20T07:15:12.048Z,511.88
2018-09-20T07:16:12.081Z,517.50
2018-09-20T07:17:12.112Z,511.88
2018-09-20T07:18:12.140Z,517.50
2018-09-20T07:19:12.245Z,511.88
2018-09-20T07:20:12.203Z,528.75
2018-09-20T07:21:12.235Z,534.38
2018-09-20T07:22:12.270Z,540.00
2018-09-20T07:23:12.299Z,540.00
2018-09-20T07:24:12.334Z,551.25
2018-09-20T07:25:12.385Z,556.88
2018-09-20T07:26:12.400Z,568.13
2018-09-20T07:27:12.431Z,579.38
2018-09-20T07:28:12.462Z,590.63
2018-09-20T07:29:12.498Z,618.75
2018-09-20T07:30:12.527Z,630.00
2018-09-20T07:31:12.558Z,652.50
2018-09-20T07:32:12.584Z,686.25
2018-09-20T07:33:12.626Z,714.38
2018-09-20T07:34:12.658Z,753.75
2018-09-20T07:35:12.688Z,798.75
2018-09-20T07:36:12.722Z,843.75
2018-09-20T07:37:12.760Z,900.00
2018-09-20T07:38:12.787Z,945.00
2018-09-20T07:39:12.822Z,1029.38
2018-09-20T07:40:12.854Z,1136.25
2018-09-20T07:41:12.886Z,1254.38
2018-09-20T07:42:12.914Z,1383.75
2018-09-20T07:43:12.950Z,1445.63
2018-09-20T07:44:12.979Z,1501.88
2018-09-20T07:45:13.012Z,1501.88
2018-09-20T07:46:13.054Z,984.38
2018-09-20T07:47:13.089Z,950.63
2018-09-20T07:48:13.110Z,866.25
2018-09-20T07:49:13.145Z,984.38
2018-09-20T07:50:13.178Z,911.25
2018-09-20T07:51:13.212Z,2503.13
2018-09-20T07:52:13.241Z,3667.50
2018-09-20T07:53:13.276Z,3768.75
2018-09-20T07:54:13.311Z,3515.63
2018-09-20T07:55:13.350Z,714.38
2018-09-20T07:56:13.389Z,2806.88
2018-09-20T07:57:13.414Z,1749.38
2018-09-20T07:58:13.459Z,1603.13
2018-09-20T07:59:13.491Z,3465.00
2018-09-20T08:00:13.526Z,4168.13
2018-09-20T08:01:13.559Z,4291.88
2018-09-20T08:02:13.593Z,4089.38
2018-09-20T08:03:13.627Z,4275.00
2018-09-20T08:04:13.666Z,4381.88
2018-09-20T08:05:13.705Z,4410.00
2018-09-20T08:06:13.736Z,4348.13
2018-09-20T08:07:13.923Z,4511.25
2018-09-20T08:08:13.812Z,4500.00
2018-09-20T08:09:13.851Z,3504.38
2018-09-20T08:10:13.889Z,1203.75
2018-09-20T08:11:13.927Z,2688.75
2018-09-20T08:12:13.966Z,1344.38
2018-09-20T08:13:14.004Z,1456.88
2018-09-20T08:14:14.042Z,4595.63
2018-09-20T08:15:14.084Z,1473.75
2018-09-20T08:16:14.129Z,1147.50
2018-09-20T08:17:14.160Z,2947.50
2018-09-20T08:18:14.199Z,1327.50
2018-09-20T08:19:14.240Z,3251.25
2018-09-20T08:20:14.298Z,1389.38
2018-09-20T08:21:14.314Z,4651.88
2018-09-20T08:22:14.359Z,1530.00
2018-09-20T08:23:14.401Z,4590.00
2018-09-20T08:24:14.432Z,3183.75
2018-09-20T08:25:14.476Z,3751.88
2018-09-20T08:26:14.518Z,4629.38
2018-09-20T08:27:14.560Z,4606.88
2018-09-20T08:28:14.590Z,4708.13
2018-09-20T08:29:14.632Z,4651.88
2018-09-20T08:30:14.680Z,4713.75
2018-09-20T08:31:14.721Z,4730.63
2018-09-20T08:32:14.766Z,4747.50
2018-09-20T08:33:14.801Z,4668.75
2018-09-20T08:34:14.843Z,4567.50
2018-09-20T08:35:14.888Z,4511.25
2018-09-20T08:36:14.936Z,4449.38
2018-09-20T08:37:15.040Z,4449.38
2018-09-20T08:38:15.016Z,4426.88
2018-09-20T08:39:15.058Z,4483.13
2018-09-20T08:40:15.103Z,4466.25
2018-09-20T08:41:15.157Z,4505.63
2018-09-20T08:42:15.256Z,4494.38
2018-09-20T08:43:15.235Z,4449.38
2018-09-20T08:44:15.276Z,4410.00
2018-09-20T08:45:15.320Z,4449.38
2018-09-20T08:46:15.376Z,4449.38
2018-09-20T08:47:15.411Z,4488.75
2018-09-20T08:48:15.456Z,4460.63
2018-09-20T08:49:15.510Z,4488.75
2018-09-20T08:50:15.540Z,4483.13
2018-09-20T08:51:15.592Z,4477.50
2018-09-20T08:52:15.634Z,4488.75
2018-09-20T08:53:15.679Z,4505.63
2018-09-20T08:54:15.724Z,4460.63
2018-09-20T08:55:15.769Z,4460.63
2018-09-20T08:56:15.820Z,4494.38
2018-09-20T08:57:15.918Z,4539.38
2018-09-20T08:58:15.904Z,4573.13
2018-09-20T08:59:15.954Z,4539.38
2018-09-20T09:00:15.999Z,4533.75
2018-09-20T09:01:16.048Z,4550.63
2018-09-20T09:02:16.080Z,4663.13
2018-09-20T09:03:16.152Z,4764.38
2018-09-20T09:04:16.179Z,4725.00
2018-09-20T09:05:16.239Z,4708.13
2018-09-20T09:06:16.279Z,4612.50
2018-09-20T09:07:16.325Z,4696.88
2018-09-20T09:08:16.360Z,4950.00
2018-09-20T09:09:16.413Z,5169.38
2018-09-20T09:10:16.474Z,5220.00
2018-09-20T09:11:16.510Z,5214.38
2018-09-20T09:12:16.560Z,5248.13
2018-09-20T09:13:16.606Z,5248.13
2018-09-20T09:14:16.662Z,5428.13
2018-09-20T09:15:16.698Z,5484.38
2018-09-20T09:16:16.743Z,5506.88
2018-09-20T09:17:16.790Z,5664.38
2018-09-20T09:18:16.851Z,5731.88
2018-09-20T09:19:16.877Z,5737.50
2018-09-20T09:20:16.928Z,3948.75
2018-09-20T09:21:16.979Z,3200.63
2018-09-20T09:22:17.031Z,1777.50
2018-09-20T09:23:17.089Z,5731.88
2018-09-20T09:24:17.115Z,5101.88
2018-09-20T09:25:17.175Z,5968.13
2018-09-20T09:26:17.221Z,3763.13
2018-09-20T09:27:17.268Z,1980.00
2018-09-20T09:28:17.313Z,5979.38
2018-09-20T09:29:17.362Z,5675.63
2018-09-20T09:30:17.409Z,6288.75
2018-09-20T09:31:17.465Z,6165.00
2018-09-20T09:32:17.506Z,6300.00
2018-09-20T09:33:17.551Z,5281.88
2018-09-20T09:34:17.632Z,6423.75
2018-09-20T09:35:17.651Z,1833.75
2018-09-20T09:36:17.695Z,2390.63
2018-09-20T09:37:17.740Z,5439.38
2018-09-20T09:38:17.792Z,1828.13
2018-09-20T09:39:17.843Z,1473.75
2018-09-20T09:40:17.895Z,5287.50
2018-09-20T09:41:17.937Z,1603.13
2018-09-20T09:42:18.092Z,1738.13
2018-09-20T09:43:18.044Z,1608.75
2018-09-20T09:44:18.094Z,5709.38
2018-09-20T09:45:18.124Z,2193.75
2018-09-20T09:46:18.179Z,5996.25
2018-09-20T09:47:18.220Z,1923.75
2018-09-20T09:48:18.266Z,1535.63
2018-09-20T09:49:18.304Z,6176.25
2018-09-20T09:50:18.359Z,6367.50
2018-09-20T09:51:18.396Z,4331.25
2018-09-20T09:52:18.444Z,1625.63
2018-09-20T09:53:18.524Z,1698.75
2018-09-20T09:54:18.546Z,1428.75
2018-09-20T09:55:18.600Z,2238.75
2018-09-20T09:56:18.638Z,1383.75
2018-09-20T09:57:18.695Z,1203.75
2018-09-20T09:58:18.730Z,1445.63
2018-09-20T09:59:18.785Z,5799.38
2018-09-20T10:00:18.827Z,1783.13
2018-09-20T10:01:18.871Z,5889.38
2018-09-20T10:02:18.916Z,3830.63
2018-09-20T10:03:18.961Z,1271.25
2018-09-20T10:04:18.999Z,1372.50
2018-09-20T10:05:19.057Z,1771.88
2018-09-20T10:06:19.104Z,3330.00
2018-09-20T10:07:19.231Z,4584.38
2018-09-20T10:08:19.193Z,5332.50
2018-09-20T10:09:19.235Z,2278.13
2018-09-20T10:10:19.280Z,4955.63
2018-09-20T10:11:19.331Z,4983.75
2018-09-20T10:12:19.377Z,4899.38
2018-09-20T10:13:19.428Z,5085.00
2018-09-20T10:14:19.464Z,5135.63
2018-09-20T10:15:19.516Z,5175.00
2018-09-20T10:16:19.548Z,4758.75
2018-09-20T10:17:19.602Z,4708.13
2018-09-20T10:18:19.650Z,4275.00
2018-09-20T10:19:19.694Z,3285.00
2018-09-20T10:20:19.750Z,3616.88
2018-09-20T10:21:19.791Z,1980.00
2018-09-20T10:22:19.839Z,3048.75
2018-09-20T10:23:19.884Z,4376.25
2018-09-20T10:24:19.936Z,3993.75
2018-09-20T10:25:19.977Z,4950.00
2018-09-20T10:26:20.025Z,3560.63
2018-09-20T10:27:20.067Z,4336.88
2018-09-20T10:28:20.113Z,5231.25
2018-09-20T10:29:20.157Z,5315.63
2018-09-20T10:30:20.215Z,5321.25
2018-09-20T10:31:20.278Z,5242.50
2018-09-20T10:32:20.299Z,5450.63
2018-09-20T10:33:20.344Z,5827.50
2018-09-20T10:34:20.390Z,5748.75
2018-09-20T10:35:20.438Z,5062.50
2018-09-20T10:36:20.490Z,4460.63
2018-09-20T10:37:20.534Z,1845.00
2018-09-20T10:38:20.575Z,1783.13
2018-09-20T10:39:20.643Z,3476.25
2018-09-20T10:40:20.676Z,3532.50
2018-09-20T10:41:20.721Z,2902.50
2018-09-20T10:42:20.797Z,3881.25
2018-09-20T10:43:20.823Z,4151.25
2018-09-20T10:44:20.861Z,1861.88
2018-09-20T10:45:20.912Z,1996.88
2018-09-20T10:46:20.959Z,5191.88
2018-09-20T10:47:21.082Z,4381.88
2018-09-20T10:48:21.059Z,4460.63
2018-09-20T10:49:21.103Z,4848.75
2018-09-20T10:50:21.148Z,5416.88
2018-09-20T10:51:21.192Z,5484.38
2018-09-20T10:52:21.241Z,5248.13
2018-09-20T10:53:21.288Z,5023.13
2018-09-20T10:54:21.330Z,5028.75
2018-09-20T10:55:21.385Z,5085.00
2018-09-20T10:56:21.429Z,4578.75
2018-09-20T10:57:21.484Z,4708.13
2018-09-20T10:58:21.528Z,4342.50
2018-09-20T10:59:21.573Z,3667.50
2018-09-20T11:00:21.627Z,4050.00
2018-09-20T11:01:21.662Z,3234.38
2018-09-20T11:02:21.716Z,3043.13
2018-09-20T11:03:21.777Z,2531.25
2018-09-20T11:04:21.814Z,2165.63
2018-09-20T11:05:21.865Z,3825.00
2018-09-20T11:06:21.907Z,3358.13
2018-09-20T11:07:21.958Z,3858.75
2018-09-20T11:08:22.006Z,4983.75
2018-09-20T11:09:22.050Z,4702.50
2018-09-20T11:10:22.124Z,5467.50
2018-09-20T11:11:22.191Z,5613.75
2018-09-20T11:12:22.199Z,4640.63
2018-09-20T11:13:22.240Z,5034.38
2018-09-20T11:14:22.282Z,4488.75
2018-09-20T11:15:22.336Z,4365.00
2018-09-20T11:16:22.388Z,5023.13
2018-09-20T11:17:22.433Z,5557.50
2018-09-20T11:18:22.487Z,5529.38
2018-09-20T11:19:22.519Z,5371.88
2018-09-20T11:20:22.591Z,5428.13
2018-09-20T11:21:22.623Z,5259.38
2018-09-20T11:22:22.673Z,5141.25
2018-09-20T11:23:22.722Z,5709.38
2018-09-20T11:24:22.775Z,5698.13
2018-09-20T11:25:22.820Z,5298.75
2018-09-20T11:26:22.871Z,5771.25
2018-09-20T11:27:22.919Z,5473.13
2018-09-20T11:28:22.967Z,4781.25
2018-09-20T11:29:23.022Z,3526.88
2018-09-20T11:30:23.067Z,2295.00
2018-09-20T11:31:23.112Z,3240.00
2018-09-20T11:32:23.167Z,2008.13
2018-09-20T11:33:23.213Z,1771.88
2018-09-20T11:34:23.261Z,2238.75
2018-09-20T11:35:23.313Z,2958.75
2018-09-20T11:36:23.388Z,4230.00
2018-09-20T11:37:23.414Z,4168.13
2018-09-20T11:38:23.459Z,4387.50
2018-09-20T11:39:23.510Z,5833.13
2018-09-20T11:40:23.558Z,5782.50
2018-09-20T11:41:23.605Z,5900.63
2018-09-20T11:42:23.666Z,5844.38
2018-09-20T11:43:23.705Z,5827.50
2018-09-20T11:44:23.752Z,5709.38
2018-09-20T11:45:23.797Z,5737.50
2018-09-20T11:46:23.845Z,5664.38
2018-09-20T11:47:23.901Z,5523.75
2018-09-20T11:48:23.948Z,5546.25
2018-09-20T11:49:23.995Z,5563.13
2018-09-20T11:50:24.049Z,5619.38
2018-09-20T11:51:24.091Z,5383.13
2018-09-20T11:52:24.147Z,5484.38
2018-09-20T11:53:24.192Z,5608.13
2018-09-20T11:54:24.243Z,5040.00
2018-09-20T11:55:24.292Z,5602.50
2018-09-20T11:56:24.345Z,5709.38
2018-09-20T11:57:24.398Z,5681.25
2018-09-20T11:58:24.455Z,5568.75
2018-09-20T11:59:24.508Z,5625.00
2018-09-20T12:00:24.551Z,5630.63
2018-09-20T12:01:24.681Z,5574.38
2018-09-20T12:02:24.647Z,5270.63
2018-09-20T12:03:24.698Z,5422.50
2018-09-20T12:04:24.746Z,5326.88
2018-09-20T12:05:24.790Z,4860.00
2018-09-20T12:06:24.852Z,5371.88
2018-09-20T12:07:24.900Z,5236.88
2018-09-20T12:08:24.955Z,5338.13
2018-09-20T12:09:25.000Z,5416.88
2018-09-20T12:10:25.045Z,5045.63
2018-09-20T12:11:25.112Z,1721.25
2018-09-20T12:12:25.154Z,1316.25
2018-09-20T12:13:25.204Z,5085.00
2018-09-20T12:14:25.259Z,5293.13
2018-09-20T12:15:25.307Z,5203.13
2018-09-20T12:16:25.354Z,5130.00
2018-09-20T12:17:25.407Z,4713.75
2018-09-20T12:18:25.466Z,4719.38
2018-09-20T12:19:25.512Z,4961.25
2018-09-20T12:20:25.561Z,5085.00
2018-09-20T12:21:25.607Z,5073.75
2018-09-20T12:22:25.662Z,4950.00
2018-09-20T12:23:25.712Z,4972.50
2018-09-20T12:24:25.764Z,4944.38
2018-09-20T12:25:25.824Z,5034.38
2018-09-20T12:26:25.868Z,5045.63
2018-09-20T12:28:25.974Z,5028.75
2018-09-20T12:29:26.021Z,4573.13
2018-09-20T12:30:26.079Z,4753.13
2018-09-20T12:31:26.143Z,4809.38
2018-09-20T12:32:26.175Z,4646.25
2018-09-20T12:33:26.226Z,5023.13
2018-09-20T12:34:26.280Z,5040.00
2018-09-20T12:35:26.344Z,5079.38
2018-09-20T12:36:26.383Z,5146.88
2018-09-20T12:37:26.449Z,4938.75
2018-09-20T12:38:26.482Z,5141.25
2018-09-20T12:39:26.542Z,5130.00
2018-09-20T12:40:26.585Z,5152.50
2018-09-20T12:41:26.639Z,5248.13